Redwood City, CA (94061)

11:25 PM PST on December 21, 2014 (GMT -0800)
Skywood | Change Station
CLOSE
Current Station
Personal Weather Station
Location: Woodside, CA
Elevation: 1453 ft
Nearby Weather Stations
Active Advisory: Coastal Flood Advisory

Elev 1453 ft 37.39 °N, 122.26 °W | Updated 2 seconds ago

Overcast
Overcast
54.0 °F
Feels Like 54.0 °F
N
0.0
Wind Variable Wind from North
Gusts 0.0 mph

Today
High -- | Low -- °F
--% Chance of Precip.
Yesterday
High -- | Low -- °F
Precip. -- in
7:19 AM 4:54 PM
New Moon, 0% visible
Pressure 30.31 in
Visibility 10.0 miles
Clouds Overcast 700 ft
Dew Point 53 °F
Humidity 97%
Rainfall 0.12 in
Snow Depth Not available.
UV 0 out of 12
Pollen 3.40 out of 12
Air Quality Not available.
Flu Activity Not available.
METAR KSQL 220715Z AUTO 00000KT 10SM OVC007 14/13 A3031 RMK AO2

More Conditions Fewer Conditions

Pressure 30.31 in
Visibility 10.0 miles
Clouds Overcast 700 ft
Dew Point 53 °F
Humidity 97%
Rainfall 0.12 in
Snow Depth Not available.
UV 0 out of 12
Pollen 3.40 out of 12
Air Quality Not available.
Flu Activity Not available.
METAR KSQL 220715Z AUTO 00000KT 10SM OVC007 14/13 A3031 RMK AO2

More Conditions Fewer Conditions

10-Day Weather Forecast

Almanac

Astronomy

Dec. 21, 2014 Rise Set
Actual Time
Civil Twilight
Nautical Twilight
Astronomical Twilight
Moon
Length of Visible Light
Length of Day
Tomorrow will be .
, % of the Moon is Illuminated

Today's Extremes

State Highs State Lows

Community

WunderPhotos

Upload Photos

1,779,561 photos uploaded!

WunderBlogs® & News

Nearby

Air Quality

  Air Quality AQ Index Pollutant
Not available.

Snow Depth

Station Depth Elevation

Earthquake Activity

City Distance Mag. Time & Date
Minimum magnitude displayed is 2.5.

Coastal Water Temperatures

Place Temperature

Nearby Weather Stations